Time,TemperatureF,DewpointF,PressureIn,WindDirection,WindDirectionDegrees,WindSpeedMPH,WindSpeedGustMPH,Humidity,HourlyPrecipIn,Conditions,Clouds,dailyrainin,SoftwareType,DateUTC
2013-11-10 00:00:00,45.5,25.9,30.00,South,180,2.0,6.0,46,0.00,,,-99.99,WeatherLink 5.4,2013-11-10 05:00:00,
2013-11-10 00:15:00,45.4,26.3,30.00,SSW,202,3.0,6.0,47,0.00,,,-99.99,WeatherLink 5.4,2013-11-10 05:15:00,
2013-11-10 00:20:00,45.4,26.3,30.00,SSW,202,3.0,6.0,47,0.00,,,-99.99,WeatherLink 5.4,2013-11-10 05:20:00,
2013-11-10 00:30:00,45.1,26.1,30.00,SSW,202,3.0,10.0,47,0.00,,,-99.99,WeatherLink 5.4,2013-11-10 05:30:00,
2013-11-10 00:45:00,45.1,26.1,30.00,SSW,202,3.0,10.0,47,0.00,,,-99.99,WeatherLink 5.4,2013-11-10 05:45:00,
2013-11-10 01:00:00,44.9,25.9,29.99,SSW,202,1.0,5.0,47,0.00,,,-99.99,WeatherLink 5.4,2013-11-10 06:00:00,
2013-11-10 01:05:00,44.9,25.9,29.99,SSW,202,1.0,5.0,47,0.00,,,-99.99,WeatherLink 5.4,2013-11-10 06:05:00,
2013-11-10 01:15:00,44.5,26.0,29.99,SSW,202,2.0,6.0,48,0.00,,,-99.99,WeatherLink 5.4,2013-11-10 06:15:00,
2013-11-10 01:30:00,43.9,26.4,29.99,South,180,2.0,6.0,50,0.00,,,-99.99,WeatherLink 5.4,2013-11-10 06:30:00,
2013-11-10 01:45:00,43.3,25.9,29.99,South,180,2.0,4.0,50,0.00,,,-99.99,WeatherLink 5.4,2013-11-10 06:45:00,
2013-11-10 02:00:00,43.1,26.2,29.98,South,180,1.0,6.0,51,0.00,,,-99.99,WeatherLink 5.4,2013-11-10 07:00:00,
2013-11-10 02:15:00,42.8,25.9,29.99,SSW,202,0.0,2.0,51,0.00,,,-99.99,WeatherLink 5.4,2013-11-10 07:15:00,
2013-11-10 02:20:00,42.8,25.9,29.99,SSW,202,0.0,2.0,51,0.00,,,-99.99,WeatherLink 5.4,2013-11-10 07:20:00,
2013-11-10 02:30:00,42.8,25.9,29.99,South,180,1.0,3.0,51,0.00,,,-99.99,WeatherLink 5.4,2013-11-10 07:30:00,
2013-11-10 02:45:00,42.8,25.9,29.99,South,180,1.0,3.0,51,0.00,,,-99.99,WeatherLink 5.4,2013-11-10 07:45:00,
2013-11-10 02:50:00,42.8,25.9,29.99,South,180,1.0,3.0,51,0.00,,,-99.99,WeatherLink 5.4,2013-11-10 07:50:00,
2013-11-10 03:00:00,42.8,25.9,29.98,South,180,1.0,4.0,51,0.00,,,-99.99,WeatherLink 5.4,2013-11-10 08:00:00,
2013-11-10 03:15:00,42.6,25.7,29.98,South,180,1.0,4.0,51,0.00,,,-99.99,WeatherLink 5.4,2013-11-10 08:15:00,
2013-11-10 03:20:00,42.6,25.7,29.98,South,180,1.0,4.0,51,0.00,,,-99.99,WeatherLink 5.4,2013-11-10 08:20:00,
2013-11-10 03:30:00,42.5,25.6,29.98,South,180,1.0,3.0,51,0.00,,,-99.99,WeatherLink 5.4,2013-11-10 08:30:00,
2013-11-10 03:45:00,42.3,25.9,29.98,South,180,1.0,3.0,52,0.00,,,-99.99,WeatherLink 5.4,2013-11-10 08:45:00,
2013-11-10 04:00:00,42.3,25.9,29.98,SSW,202,1.0,3.0,52,0.00,,,-99.99,WeatherLink 5.4,2013-11-10 09:00:00,
2013-11-10 04:15:00,42.2,25.8,29.98,SSW,202,1.0,3.0,52,0.00,,,-99.99,WeatherLink 5.4,2013-11-10 09:15:00,
2013-11-10 04:20:00,42.2,25.8,29.98,SSW,202,1.0,3.0,52,0.00,,,-99.99,WeatherLink 5.4,2013-11-10 09:20:00,
2013-11-10 04:30:00,42.3,25.9,29.98,SSW,202,1.0,3.0,52,0.00,,,-99.99,WeatherLink 5.4,2013-11-10 09:30:00,
2013-11-10 04:45:00,42.6,26.2,29.99,South,180,1.0,5.0,52,0.00,,,-99.99,WeatherLink 5.4,2013-11-10 09:45:00,
2013-11-10 05:00:00,42.5,26.1,29.99,South,180,2.0,3.0,52,0.00,,,-99.99,WeatherLink 5.4,2013-11-10 10:00:00,
2013-11-10 05:05:00,42.5,26.1,29.99,South,180,2.0,3.0,52,0.00,,,-99.99,WeatherLink 5.4,2013-11-10 10:05:00,
2013-11-10 05:15:00,42.3,26.4,29.99,South,180,1.0,5.0,53,0.00,,,-99.99,WeatherLink 5.4,2013-11-10 10:15:00,
2013-11-10 05:30:00,42.3,26.4,29.99,South,180,2.0,5.0,53,0.00,,,-99.99,WeatherLink 5.4,2013-11-10 10:30:00,
2013-11-10 05:35:00,42.3,26.4,29.99,South,180,2.0,5.0,53,0.00,,,-99.99,WeatherLink 5.4,2013-11-10 10:35:00,
2013-11-10 05:45:00,42.3,26.8,29.99,South,180,2.0,5.0,54,0.00,,,-99.99,WeatherLink 5.4,2013-11-10 10:45:00,
2013-11-10 06:00:00,42.3,27.3,29.98,South,180,2.0,6.0,55,0.00,,,-99.99,WeatherLink 5.4,2013-11-10 11:00:00,
2013-11-10 06:05:00,42.3,27.3,29.98,South,180,2.0,6.0,55,0.00,,,-99.99,WeatherLink 5.4,2013-11-10 11:05:00,
2013-11-10 06:15:00,42.2,27.6,29.98,SSE,157,2.0,5.0,56,0.00,,,-99.99,WeatherLink 5.4,2013-11-10 11:15:00,
2013-11-10 06:30:00,42.3,27.3,29.99,South,180,2.0,7.0,55,0.00,,,-99.99,WeatherLink 5.4,2013-11-10 11:30:00,
2013-11-10 06:35:00,42.3,27.3,29.99,South,180,2.0,7.0,55,0.00,,,-99.99,WeatherLink 5.4,2013-11-10 11:35:00,
2013-11-10 06:45:00,42.6,27.5,29.98,South,180,2.0,7.0,55,0.00,,,-99.99,WeatherLink 5.4,2013-11-10 11:45:00,
2013-11-10 06:50:00,42.6,27.5,29.98,South,180,2.0,7.0,55,0.00,,,-99.99,WeatherLink 5.4,2013-11-10 11:50:00,
2013-11-10 07:00:00,42.6,28.4,29.99,South,180,1.0,6.0,57,0.00,,,-99.99,WeatherLink 5.4,2013-11-10 12:00:00,
2013-11-10 07:15:00,42.2,28.0,29.99,South,180,0.0,3.0,57,0.00,,,-99.99,WeatherLink 5.4,2013-11-10 12:15:00,
2013-11-10 07:20:00,42.2,28.0,29.99,South,180,0.0,3.0,57,0.00,,,-99.99,WeatherLink 5.4,2013-11-10 12:20:00,
2013-11-10 07:30:00,41.9,28.6,30.00,South,180,0.0,3.0,59,0.00,,,-99.99,WeatherLink 5.4,2013-11-10 12:30:00,
2013-11-10 07:45:00,41.9,29.4,30.00,South,180,1.0,3.0,61,0.00,,,-99.99,WeatherLink 5.4,2013-11-10 12:45:00,
2013-11-10 07:50:00,41.9,29.4,30.00,South,180,1.0,3.0,61,0.00,,,-99.99,WeatherLink 5.4,2013-11-10 12:50:00,
2013-11-10 08:00:00,42.6,30.1,30.00,South,180,2.0,5.0,61,0.00,,,-99.99,WeatherLink 5.4,2013-11-10 13:00:00,
2013-11-10 08:15:00,44.5,32.3,29.99,SSE,157,1.0,5.0,62,0.00,,,-99.99,WeatherLink 5.4,2013-11-10 13:15:00,
2013-11-10 08:30:00,46.4,32.8,29.99,SW,225,2.0,5.0,59,0.00,,,-99.99,WeatherLink 5.4,2013-11-10 13:30:00,
2013-11-10 08:45:00,49.8,33.8,29.98,WSW,247,2.0,8.0,54,0.00,,,-99.99,WeatherLink 5.4,2013-11-10 13:45:00,
2013-11-10 09:00:00,51.4,33.9,29.98,WSW,247,3.0,10.0,51,0.00,,,-99.99,WeatherLink 5.4,2013-11-10 14:00:00,
2013-11-10 09:05:00,51.4,33.9,29.98,WSW,247,3.0,10.0,51,0.00,,,-99.99,WeatherLink 5.4,2013-11-10 14:05:00,
2013-11-10 09:15:00,53.1,33.4,29.98,WSW,247,4.0,11.0,47,0.00,,,-99.99,WeatherLink 5.4,2013-11-10 14:15:00,
2013-11-10 09:30:00,53.8,31.8,29.98,WSW,247,6.0,14.0,43,0.00,,,-99.99,WeatherLink 5.4,2013-11-10 14:30:00,
2013-11-10 09:35:00,53.8,31.8,29.98,WSW,247,6.0,14.0,43,0.00,,,-99.99,WeatherLink 5.4,2013-11-10 14:35:00,
2013-11-10 09:45:00,54.1,30.9,29.97,WSW,247,10.0,25.0,41,0.00,,,-99.99,WeatherLink 5.4,2013-11-10 14:45:00,
2013-11-10 09:50:00,54.1,30.9,29.97,WSW,247,10.0,25.0,41,0.00,,,-99.99,WeatherLink 5.4,2013-11-10 14:50:00,
2013-11-10 10:00:00,55.0,30.5,29.98,WSW,247,8.0,18.0,39,0.00,,,-99.99,WeatherLink 5.4,2013-11-10 15:00:00,
2013-11-10 10:15:00,55.1,30.6,29.98,WSW,247,9.0,22.0,39,0.00,,,-99.99,WeatherLink 5.4,2013-11-10 15:15:00,
2013-11-10 10:20:00,55.1,30.6,29.98,WSW,247,9.0,22.0,39,0.00,,,-99.99,WeatherLink 5.4,2013-11-10 15:20:00,
2013-11-10 10:30:00,54.5,28.7,29.98,West,270,8.0,25.0,37,0.00,,,-99.99,WeatherLink 5.4,2013-11-10 15:30:00,
2013-11-10 10:45:00,55.3,30.1,29.99,West,270,8.0,18.0,38,0.00,,,-99.99,WeatherLink 5.4,2013-11-10 15:45:00,
2013-11-10 10:50:00,55.3,30.1,29.99,West,270,8.0,18.0,38,0.00,,,-99.99,WeatherLink 5.4,2013-11-10 15:50:00,
2013-11-10 11:00:00,55.1,28.6,29.99,NW,315,11.0,25.0,36,0.00,,,-99.99,WeatherLink 5.4,2013-11-10 16:00:00,
2013-11-10 11:15:00,55.0,28.5,29.99,NW,315,12.0,24.0,36,0.00,,,-99.99,WeatherLink 5.4,2013-11-10 16:15:00,
2013-11-10 11:30:00,54.4,28.0,29.99,WNW,292,10.0,24.0,36,0.00,,,-99.99,WeatherLink 5.4,2013-11-10 16:30:00,
2013-11-10 11:45:00,55.3,30.1,29.99,NW,315,10.0,25.0,38,0.00,,,-99.99,WeatherLink 5.4,2013-11-10 16:45:00,
2013-11-10 12:00:00,55.0,27.1,30.00,West,270,11.0,26.0,34,0.00,,,-99.99,WeatherLink 5.4,2013-11-10 17:00:00,
2013-11-10 12:15:00,55.0,26.4,30.00,WSW,247,12.0,21.0,33,0.00,,,-99.99,WeatherLink 5.4,2013-11-10 17:15:00,
2013-11-10 12:20:00,55.0,26.4,30.00,WSW,247,12.0,21.0,33,0.00,,,-99.99,WeatherLink 5.4,2013-11-10 17:20:00,
2013-11-10 12:30:00,53.9,26.1,30.00,West,270,13.0,30.0,34,0.00,,,-99.99,WeatherLink 5.4,2013-11-10 17:30:00,
2013-11-10 12:45:00,53.8,26.1,30.00,West,270,12.0,28.0,34,0.00,,,-99.99,WeatherLink 5.4,2013-11-10 17:45:00,
2013-11-10 13:00:00,54.2,27.1,30.00,WSW,247,13.0,22.0,35,0.00,,,-99.99,WeatherLink 5.4,2013-11-10 18:00:00,
2013-11-10 13:05:00,54.2,27.1,30.00,WSW,247,13.0,22.0,35,0.00,,,-99.99,WeatherLink 5.4,2013-11-10 18:05:00,
2013-11-10 13:15:00,53.6,27.3,30.01,WSW,247,9.0,18.0,36,0.00,,,-99.99,WeatherLink 5.4,2013-11-10 18:15:00,
2013-11-10 13:30:00,53.3,27.0,30.02,NW,315,10.0,26.0,36,0.00,,,-99.99,WeatherLink 5.4,2013-11-10 18:30:00,
2013-11-10 13:35:00,53.3,27.0,30.02,NW,315,10.0,26.0,36,0.00,,,-99.99,WeatherLink 5.4,2013-11-10 18:35:00,
2013-11-10 13:45:00,53.1,26.8,30.03,West,270,10.0,26.0,36,0.00,,,-99.99,WeatherLink 5.4,2013-11-10 18:45:00,
2013-11-10 14:00:00,53.1,27.5,30.03,West,270,12.0,28.0,37,0.00,,,-99.99,WeatherLink 5.4,2013-11-10 19:00:00,
2013-11-10 14:05:00,53.1,27.5,30.03,West,270,12.0,28.0,37,0.00,,,-99.99,WeatherLink 5.4,2013-11-10 19:05:00,
2013-11-10 14:15:00,52.2,26.7,30.03,NW,315,12.0,30.0,37,0.00,,,-99.99,WeatherLink 5.4,2013-11-10 19:15:00,
2013-11-10 14:20:00,52.2,26.7,30.03,NW,315,12.0,30.0,37,0.00,,,-99.99,WeatherLink 5.4,2013-11-10 19:20:00,
2013-11-10 14:30:00,51.6,26.8,30.05,WNW,292,12.0,29.0,38,0.00,,,-99.99,WeatherLink 5.4,2013-11-10 19:30:00,
2013-11-10 14:45:00,51.7,26.9,30.05,West,270,12.0,28.0,38,0.00,,,-99.99,WeatherLink 5.4,2013-11-10 19:45:00,
2013-11-10 14:50:00,51.7,26.9,30.05,West,270,12.0,28.0,38,0.00,,,-99.99,WeatherLink 5.4,2013-11-10 19:50:00,
2013-11-10 15:00:00,51.0,26.3,30.07,West,270,10.0,27.0,38,0.00,,,-99.99,WeatherLink 5.4,2013-11-10 20:00:00,
2013-11-10 15:15:00,50.8,26.1,30.08,WNW,292,10.0,22.0,38,0.00,,,-99.99,WeatherLink 5.4,2013-11-10 20:15:00,
2013-11-10 15:30:00,50.8,26.7,30.08,West,270,12.0,27.0,39,0.00,,,-99.99,WeatherLink 5.4,2013-11-10 20:30:00,
2013-11-10 15:35:00,50.8,26.7,30.08,West,270,12.0,27.0,39,0.00,,,-99.99,WeatherLink 5.4,2013-11-10 20:35:00,
2013-11-10 15:45:00,50.2,26.8,30.09,West,270,10.0,26.0,40,0.00,,,-99.99,WeatherLink 5.4,2013-11-10 20:45:00,
2013-11-10 15:50:00,50.2,26.8,30.09,West,270,10.0,26.0,40,0.00,,,-99.99,WeatherLink 5.4,2013-11-10 20:50:00,
2013-11-10 16:00:00,49.6,25.6,30.10,West,270,10.0,20.0,39,0.00,,,-99.99,WeatherLink 5.4,2013-11-10 21:00:00,
2013-11-10 16:15:00,49.2,25.9,30.11,West,270,11.0,24.0,40,0.00,,,-99.99,WeatherLink 5.4,2013-11-10 21:15:00,
2013-11-10 16:20:00,49.2,25.9,30.11,West,270,11.0,24.0,40,0.00,,,-99.99,WeatherLink 5.4,2013-11-10 21:20:00,
2013-11-10 16:30:00,48.6,25.9,30.12,West,270,9.0,21.0,41,0.00,,,-99.99,WeatherLink 5.4,2013-11-10 21:30:00,
2013-11-10 16:45:00,48.0,26.0,30.13,NW,315,8.0,18.0,42,0.00,,,-99.99,WeatherLink 5.4,2013-11-10 21:45:00,
2013-11-10 17:00:00,47.3,25.9,30.14,NW,315,7.0,20.0,43,0.00,,,-99.99,WeatherLink 5.4,2013-11-10 22:00:00,
2013-11-10 17:05:00,47.3,25.9,30.14,NW,315,7.0,20.0,43,0.00,,,-99.99,WeatherLink 5.4,2013-11-10 22:05:00,
2013-11-10 17:15:00,46.8,25.5,30.14,NW,315,8.0,24.0,43,0.00,,,-99.99,WeatherLink 5.4,2013-11-10 22:15:00,
2013-11-10 17:30:00,46.7,24.8,30.15,West,270,8.0,19.0,42,0.00,,,-99.99,WeatherLink 5.4,2013-11-10 22:30:00,
2013-11-10 17:45:00,46.2,24.3,30.15,West,270,6.0,22.0,42,0.00,,,-99.99,WeatherLink 5.4,2013-11-10 22:45:00,
2013-11-10 18:00:00,46.1,24.8,30.16,West,270,6.0,13.0,43,0.00,,,-99.99,WeatherLink 5.4,2013-11-10 23:00:00,
2013-11-10 18:15:00,46.0,24.2,30.17,West,270,7.0,18.0,42,0.00,,,-99.99,WeatherLink 5.4,2013-11-10 23:15:00,
2013-11-10 18:30:00,46.2,23.2,30.18,West,270,7.0,20.0,40,0.00,,,-99.99,WeatherLink 5.4,2013-11-10 23:30:00,
2013-11-10 18:35:00,46.2,23.2,30.18,West,270,7.0,20.0,40,0.00,,,-99.99,WeatherLink 5.4,2013-11-10 23:35:00,
2013-11-10 18:45:00,46.2,24.3,30.19,West,270,6.0,21.0,42,0.00,,,-99.99,WeatherLink 5.4,2013-11-10 23:45:00,
2013-11-10 19:00:00,46.2,24.3,30.19,NW,315,5.0,16.0,42,0.00,,,-99.99,WeatherLink 5.4,2013-11-11 00:00:00,
2013-11-10 19:05:00,46.2,24.3,30.19,NW,315,5.0,16.0,42,0.00,,,-99.99,WeatherLink 5.4,2013-11-11 00:05:00,
2013-11-10 19:15:00,46.1,24.3,30.19,West,270,5.0,17.0,42,0.00,,,-99.99,WeatherLink 5.4,2013-11-11 00:15:00,
2013-11-10 19:30:00,46.0,24.7,30.19,West,270,4.0,14.0,43,0.00,,,-99.99,WeatherLink 5.4,2013-11-11 00:30:00,
2013-11-10 19:45:00,45.8,24.0,30.20,West,270,5.0,17.0,42,0.00,,,-99.99,WeatherLink 5.4,2013-11-11 00:45:00,
2013-11-10 19:50:00,45.8,24.0,30.20,West,270,5.0,17.0,42,0.00,,,-99.99,WeatherLink 5.4,2013-11-11 00:50:00,
2013-11-10 20:00:00,46.0,25.3,30.20,NW,315,5.0,14.0,44,0.00,,,-99.99,WeatherLink 5.4,2013-11-11 01:00:00,
2013-11-10 20:15:00,45.7,25.0,30.20,West,270,4.0,14.0,44,0.00,,,-99.99,WeatherLink 5.4,2013-11-11 01:15:00,
2013-11-10 20:20:00,45.7,25.0,30.20,West,270,4.0,14.0,44,0.00,,,-99.99,WeatherLink 5.4,2013-11-11 01:20:00,
2013-11-10 20:30:00,45.2,25.1,30.20,West,270,4.0,17.0,45,0.00,,,-99.99,WeatherLink 5.4,2013-11-11 01:30:00,
2013-11-10 20:35:00,45.2,25.1,30.20,West,270,4.0,17.0,45,0.00,,,-99.99,WeatherLink 5.4,2013-11-11 01:35:00,
2013-11-10 20:45:00,45.2,25.6,30.20,West,270,3.0,11.0,46,0.00,,,-99.99,WeatherLink 5.4,2013-11-11 01:45:00,
2013-11-10 20:50:00,45.2,25.6,30.20,West,270,3.0,11.0,46,0.00,,,-99.99,WeatherLink 5.4,2013-11-11 01:50:00,
2013-11-10 21:00:00,44.9,25.3,30.20,West,270,5.0,16.0,46,0.00,,,-99.99,WeatherLink 5.4,2013-11-11 02:00:00,
2013-11-10 21:15:00,44.6,25.1,30.20,West,270,3.0,11.0,46,0.00,,,-99.99,WeatherLink 5.4,2013-11-11 02:15:00,
2013-11-10 21:30:00,44.2,24.7,30.20,West,270,4.0,11.0,46,0.00,,,-99.99,WeatherLink 5.4,2013-11-11 02:30:00,
2013-11-10 21:35:00,44.2,24.7,30.20,West,270,4.0,11.0,46,0.00,,,-99.99,WeatherLink 5.4,2013-11-11 02:35:00,
2013-11-10 21:45:00,44.1,25.1,30.21,West,270,4.0,12.0,47,0.00,,,-99.99,WeatherLink 5.4,2013-11-11 02:45:00,
2013-11-10 22:00:00,43.8,24.9,30.21,West,270,1.0,10.0,47,0.00,,,-99.99,WeatherLink 5.4,2013-11-11 03:00:00,
2013-11-10 22:05:00,43.8,24.9,30.21,West,270,1.0,10.0,47,0.00,,,-99.99,WeatherLink 5.4,2013-11-11 03:05:00,
2013-11-10 22:15:00,43.5,25.1,30.22,West,270,1.0,6.0,48,0.00,,,-99.99,WeatherLink 5.4,2013-11-11 03:15:00,
2013-11-10 22:20:00,43.5,25.1,30.22,West,270,1.0,6.0,48,0.00,,,-99.99,WeatherLink 5.4,2013-11-11 03:20:00,
2013-11-10 22:30:00,43.2,25.3,30.22,West,270,0.0,4.0,49,0.00,,,-99.99,WeatherLink 5.4,2013-11-11 03:30:00,
2013-11-10 22:45:00,42.8,25.4,30.23,WNW,292,0.0,1.0,50,0.00,,,-99.99,WeatherLink 5.4,2013-11-11 03:45:00,
2013-11-10 23:00:00,42.5,25.1,30.23,SW,225,0.0,5.0,50,0.00,,,-99.99,WeatherLink 5.4,2013-11-11 04:00:00,
2013-11-10 23:05:00,42.5,25.1,30.23,SW,225,0.0,5.0,50,0.00,,,-99.99,WeatherLink 5.4,2013-11-11 04:05:00,
2013-11-10 23:15:00,41.6,25.7,30.23,West,270,0.0,6.0,53,0.00,,,-99.99,WeatherLink 5.4,2013-11-11 04:15:00,
2013-11-10 23:30:00,41.9,25.1,30.23,West,270,2.0,6.0,51,0.00,,,-99.99,WeatherLink 5.4,2013-11-11 04:30:00,
2013-11-10 23:45:00,42.5,25.1,30.23,West,270,3.0,10.0,50,0.00,,,-99.99,WeatherLink 5.4,2013-11-11 04:45:00,
2013-11-10 23:50:00,42.5,25.1,30.23,West,270,3.0,10.0,50,0.00,,,-99.99,WeatherLink 5.4,2013-11-11 04:50:00,